createdAt,value
2022-08-03T00:04:34.073Z,22.34
2022-08-03T00:09:36.265Z,22.24
2022-08-03T00:14:38.057Z,22.31
2022-08-03T00:19:39.820Z,22.25
2022-08-03T00:24:41.587Z,22.24
2022-08-03T00:29:59.838Z,22.26
2022-08-03T00:35:07.914Z,22.18
2022-08-03T00:40:15.238Z,21.98
2022-08-03T00:45:40.377Z,22.25
2022-08-03T00:50:43.590Z,22.22
2022-08-03T00:55:45.766Z,22.16
2022-08-03T01:00:47.594Z,22.11
2022-08-03T01:05:52.158Z,22.08
2022-08-03T01:11:36.546Z,22.00
2022-08-03T01:17:19.642Z,21.77
2022-08-03T01:23:31.509Z,21.78
2022-08-03T01:29:10.391Z,21.82
2022-08-03T01:34:17.142Z,21.70
2022-08-03T01:39:21.801Z,21.66
2022-08-03T01:44:27.698Z,21.75
2022-08-03T01:49:39.476Z,21.79
2022-08-03T01:54:46.568Z,21.75
2022-08-03T01:59:50.666Z,21.74
2022-08-03T02:04:57.584Z,21.63
2022-08-03T02:10:02.911Z,21.64
2022-08-03T02:15:07.200Z,21.73
2022-08-03T02:20:13.329Z,21.83
2022-08-03T02:25:17.929Z,21.81
2022-08-03T02:30:21.112Z,21.84
2022-08-03T02:35:27.913Z,21.81
2022-08-03T02:40:32.371Z,21.78
2022-08-03T02:45:42.583Z,21.89
2022-08-03T02:50:48.465Z,21.79
2022-08-03T02:55:52.246Z,21.82
2022-08-03T03:00:55.910Z,21.74
2022-08-03T03:05:59.819Z,21.66
2022-08-03T03:11:02.179Z,21.58
2022-08-03T03:16:07.413Z,21.68
2022-08-03T03:21:11.213Z,21.75
2022-08-03T03:26:16.256Z,21.64
2022-08-03T03:31:18.240Z,21.59
2022-08-03T03:36:20.197Z,21.68
2022-08-03T03:41:21.922Z,21.48
2022-08-03T03:46:23.932Z,21.65
2022-08-03T03:51:25.774Z,21.59
2022-08-03T03:56:28.743Z,21.69
2022-08-03T04:01:31.738Z,21.56
2022-08-03T04:06:51.801Z,21.54
2022-08-03T04:12:01.589Z,21.77
2022-08-03T04:17:08.732Z,21.77
2022-08-03T04:22:15.274Z,21.80
2022-08-03T04:27:25.551Z,21.71
2022-08-03T04:32:29.678Z,21.68
2022-08-03T04:37:47.926Z,21.75
2022-08-03T04:42:53.501Z,21.62
2022-08-03T04:47:56.068Z,21.75
2022-08-03T04:52:57.889Z,21.54
2022-08-03T04:58:01.238Z,21.69
2022-08-03T05:03:02.992Z,21.66
2022-08-03T05:08:05.193Z,21.75
2022-08-03T05:13:13.352Z,21.75
2022-08-03T05:18:15.336Z,21.77
2022-08-03T05:23:17.189Z,21.79
2022-08-03T05:28:19.094Z,22.02
2022-08-03T05:33:20.801Z,21.92
2022-08-03T05:38:28.170Z,22.06
2022-08-03T05:43:31.976Z,22.21
2022-08-03T05:48:33.688Z,22.36
2022-08-03T05:53:35.689Z,22.42
2022-08-03T05:58:37.426Z,22.77
2022-08-03T06:03:39.147Z,23.53
2022-08-03T06:08:43.544Z,24.41
2022-08-03T06:13:45.611Z,25.12
2022-08-03T06:18:47.752Z,26.31
2022-08-03T06:23:53.947Z,27.61
2022-08-03T06:28:57.397Z,28.26
2022-08-03T06:34:33.069Z,28.12
2022-08-03T06:39:23.190Z,29.69
2022-08-03T06:44:25.602Z,30.98
2022-08-03T06:49:27.732Z,30.78
2022-08-03T06:54:32.856Z,31.85
2022-08-03T07:00:07.393Z,32.75
2022-08-03T07:04:57.578Z,33.20
2022-08-03T07:09:59.509Z,34.43
2022-08-03T07:15:03.758Z,34.76
2022-08-03T07:20:08.341Z,34.85
2022-08-03T07:25:10.557Z,35.09
2022-08-03T07:30:14.349Z,34.36
2022-08-03T07:35:24.996Z,33.57
2022-08-03T07:40:30.628Z,34.59
2022-08-03T07:45:33.745Z,33.33
2022-08-03T07:50:35.563Z,32.91
2022-08-03T07:55:37.400Z,32.08
2022-08-03T08:00:39.584Z,34.42
2022-08-03T08:05:41.376Z,34.96
2022-08-03T08:10:43.135Z,36.04
2022-08-03T08:16:01.152Z,35.92
2022-08-03T08:21:03.462Z,34.05
2022-08-03T08:26:05.917Z,34.20
2022-08-03T08:31:07.833Z,36.33
2022-08-03T08:36:14.780Z,35.17
2022-08-03T08:41:17.536Z,36.80
2022-08-03T08:46:23.960Z,34.40
2022-08-03T08:51:51.049Z,35.27
2022-08-03T08:57:06.629Z,34.32
2022-08-03T09:02:18.287Z,35.38
2022-08-03T09:07:20.915Z,36.45
2022-08-03T09:12:41.216Z,37.20
2022-08-03T09:17:46.531Z,36.68
2022-08-03T09:22:55.941Z,35.92
2022-08-03T09:28:58.081Z,36.29
2022-08-03T09:33:49.936Z,36.31
2022-08-03T09:39:15.845Z,36.41
2022-08-03T09:44:25.637Z,37.36
2022-08-03T09:49:27.816Z,37.57
2022-08-03T09:54:32.543Z,36.77
2022-08-03T09:59:35.559Z,36.60
2022-08-03T10:04:48.759Z,36.24
2022-08-03T10:10:29.071Z,37.32
2022-08-03T10:16:21.762Z,35.44
2022-08-03T10:21:10.363Z,34.90
2022-08-03T10:26:18.923Z,34.63
2022-08-03T10:31:24.061Z,33.26
2022-08-03T10:36:30.610Z,33.21
2022-08-03T10:41:44.587Z,32.82
2022-08-03T10:46:51.828Z,32.79
2022-08-03T10:51:54.519Z,32.35
2022-08-03T10:57:14.831Z,31.79
2022-08-03T11:02:17.862Z,31.63
2022-08-03T11:07:25.615Z,31.74
2022-08-03T11:12:33.637Z,32.51
2022-08-03T11:17:46.175Z,32.60
2022-08-03T11:23:01.102Z,32.19
2022-08-03T11:28:46.098Z,32.50
2022-08-03T11:34:09.946Z,32.83
2022-08-03T11:39:16.870Z,32.73
2022-08-03T11:44:47.502Z,32.67
2022-08-03T11:50:00.312Z,32.59
2022-08-03T11:55:03.097Z,32.32
2022-08-03T12:00:30.594Z,31.91
2022-08-03T12:05:54.762Z,31.44
2022-08-03T12:11:00.494Z,31.73
2022-08-03T12:16:02.619Z,32.13
2022-08-03T12:21:12.649Z,32.01
2022-08-03T12:26:14.362Z,31.84
2022-08-03T12:31:16.858Z,31.72
2022-08-03T12:36:19.513Z,31.46
2022-08-03T12:41:35.305Z,31.40
2022-08-03T12:46:47.064Z,31.67
2022-08-03T12:51:52.950Z,32.13
2022-08-03T12:57:11.211Z,32.33
2022-08-03T13:02:19.879Z,32.71
2022-08-03T13:07:27.885Z,32.89
2022-08-03T13:12:30.691Z,33.01
2022-08-03T13:17:32.675Z,33.08
2022-08-03T13:22:35.161Z,31.87
2022-08-03T13:28:04.229Z,31.94
2022-08-03T13:33:00.485Z,32.29
2022-08-03T13:38:02.386Z,32.32
2022-08-03T13:43:04.624Z,32.35
2022-08-03T13:48:06.956Z,32.37
2022-08-03T13:53:08.780Z,32.46
2022-08-03T13:58:12.366Z,32.15
2022-08-03T14:03:15.017Z,32.17
2022-08-03T14:08:17.104Z,32.07
2022-08-03T14:13:18.863Z,32.13
2022-08-03T14:18:28.971Z,32.09
2022-08-03T14:23:39.516Z,32.07
2022-08-03T14:28:41.771Z,32.07
2022-08-03T14:33:43.694Z,32.00
2022-08-03T14:38:46.299Z,31.89
2022-08-03T14:44:01.716Z,31.98
2022-08-03T14:50:36.171Z,31.95
2022-08-03T14:54:28.624Z,31.70
2022-08-03T14:59:56.015Z,31.82
2022-08-03T15:04:52.889Z,31.86
2022-08-03T15:09:54.654Z,31.79
2022-08-03T15:14:56.726Z,31.85
2022-08-03T15:20:04.060Z,31.79
2022-08-03T15:26:32.174Z,31.79
2022-08-03T15:30:42.015Z,31.78
2022-08-03T15:35:44.036Z,31.78
2022-08-03T15:40:45.951Z,31.80
2022-08-03T15:45:47.910Z,31.78
2022-08-03T15:50:49.673Z,31.80
2022-08-03T15:55:51.506Z,31.73
2022-08-03T16:00:53.250Z,31.60
2022-08-03T16:05:55.545Z,31.72
2022-08-03T16:10:58.864Z,31.64
2022-08-03T16:16:03.760Z,31.58
2022-08-03T16:21:05.463Z,31.57
2022-08-03T16:26:10.151Z,31.55
2022-08-03T16:31:11.904Z,31.49
2022-08-03T16:36:13.647Z,31.38
2022-08-03T16:41:15.630Z,31.34
2022-08-03T16:46:17.354Z,31.31
2022-08-03T16:51:20.768Z,31.33
2022-08-03T16:56:25.387Z,31.45
2022-08-03T17:01:35.637Z,31.53
2022-08-03T17:06:44.948Z,31.48
2022-08-03T17:11:51.984Z,31.36
2022-08-03T17:17:00.971Z,31.26
2022-08-03T17:22:19.159Z,31.28
2022-08-03T17:28:48.700Z,31.10
2022-08-03T17:32:56.717Z,30.91
2022-08-03T17:38:05.738Z,30.68
2022-08-03T17:44:17.138Z,30.46
2022-08-03T17:48:33.631Z,30.40
2022-08-03T17:53:43.161Z,30.35
2022-08-03T17:59:50.630Z,30.26
2022-08-03T18:05:16.818Z,30.32
2022-08-03T18:10:25.482Z,30.26
2022-08-03T18:15:34.743Z,30.06
2022-08-03T18:20:42.165Z,29.94
2022-08-03T18:25:53.681Z,29.88
2022-08-03T18:31:05.701Z,29.69
2022-08-03T18:36:21.960Z,29.60
2022-08-03T18:41:35.067Z,29.49
2022-08-03T18:47:22.867Z,29.44
2022-08-03T18:52:55.921Z,29.26
2022-08-03T18:58:15.933Z,29.16
2022-08-03T19:03:25.397Z,29.08
2022-08-03T19:08:59.864Z,29.00
2022-08-03T19:14:05.264Z,28.93
2022-08-03T19:19:19.634Z,28.87
2022-08-03T19:24:25.987Z,28.80
2022-08-03T19:29:56.508Z,28.71
2022-08-03T19:34:53.543Z,28.63
2022-08-03T19:39:57.984Z,28.52
2022-08-03T19:45:13.866Z,28.50
2022-08-03T19:50:20.468Z,28.45
2022-08-03T19:55:23.564Z,28.35
2022-08-03T20:00:36.881Z,28.31
2022-08-03T20:05:45.167Z,28.24
2022-08-03T20:10:54.886Z,28.24
2022-08-03T20:15:56.606Z,28.15
2022-08-03T20:21:06.425Z,28.07
2022-08-03T20:26:20.216Z,28.00
2022-08-03T20:31:32.221Z,27.99
2022-08-03T20:36:38.120Z,27.89
2022-08-03T20:41:42.052Z,27.90
2022-08-03T20:46:53.093Z,27.77
2022-08-03T20:52:01.557Z,27.72
2022-08-03T20:57:07.138Z,27.59
2022-08-03T21:02:12.153Z,27.51
2022-08-03T21:07:25.228Z,27.55
2022-08-03T21:13:17.063Z,27.52
2022-08-03T21:18:22.444Z,27.41
2022-08-03T21:23:39.802Z,27.38
2022-08-03T21:28:49.694Z,27.38
2022-08-03T21:34:00.215Z,27.28
2022-08-03T21:39:08.115Z,27.24
2022-08-03T21:44:10.038Z,27.13
2022-08-03T21:50:06.832Z,27.11
2022-08-03T21:54:42.626Z,27.13
2022-08-03T22:00:14.727Z,27.03
2022-08-03T22:05:19.312Z,27.04
2022-08-03T22:10:30.966Z,26.95
2022-08-03T22:15:33.224Z,26.96
2022-08-03T22:20:35.297Z,26.88
2022-08-03T22:25:40.312Z,26.85
2022-08-03T22:30:43.700Z,26.80
2022-08-03T22:35:51.450Z,26.69
2022-08-03T22:40:56.178Z,26.58
2022-08-03T22:46:10.029Z,26.47
2022-08-03T22:51:16.352Z,26.44
2022-08-03T22:56:18.148Z,26.38
2022-08-03T23:01:26.213Z,26.44
2022-08-03T23:06:36.172Z,26.34
2022-08-03T23:11:45.686Z,26.36
2022-08-03T23:16:50.169Z,26.33
2022-08-03T23:22:03.221Z,26.32
2022-08-03T23:27:09.136Z,26.26
2022-08-03T23:32:13.212Z,26.24
2022-08-03T23:37:15.609Z,26.21
2022-08-03T23:42:21.274Z,26.12
2022-08-03T23:47:24.736Z,26.11
2022-08-03T23:53:08.713Z,26.12
2022-08-03T23:59:17.433Z,26.11
